Wednesday, November 22, 2017, 4:37 PM GMT
Back to Local

CYSC, Sherbrooke, Que.

Location: , , Canada Lat: 45.4
Local Time: 4:37 PM GMT (16:37 GMT) Lon: -71.883
Time Zone: GMT Elev: 557 ft

Show me the last for .
Show Decoded

2017-11-22 16:00 METAR CYSC 221600Z AUTO 23003KT 9SM -RA BKN018 BKN024 04/01 A2990 RMK SLP134 =
2017-11-22 15:47 METAR CYSC 221547Z AUTO 20003KT 9SM -RA SCT018 BKN024 BKN240 04/01 A2990 RMK
                 SLP135 =
2017-11-22 15:01 METAR CYSC 221501Z AUTO 19004KT 9SM -RA FEW028 BKN036 BKN250 04/M01 A2992 RMK
                 SLP142 =
2017-11-22 15:00 METAR CYSC 221500Z AUTO 20004KT 9SM FEW030 BKN036 BKN240 04/M01 A2992 RMK SLP142
                 =
2017-11-22 14:00 METAR CYSC 221400Z AUTO 00000KT 9SM OVC070 03/M01 A2988 RMK PRESRR SLP129 =
2017-11-22 13:00 METAR CYSC 221300Z AUTO 09002KT 9SM OVC060 02/M02 A2988 RMK SLP127 =
2017-11-22 12:00 METAR CYSC 221200Z AUTO 00000KT 9SM OVC070 01/M02 A2989 RMK SLP131 =
2017-11-22 11:00 METAR CYSC 221100Z AUTO VRB02KT 9SM OVC095 M00/M02 A2987 RMK SLP124 =
2017-11-22 10:00 METAR CYSC 221000Z AUTO 10002KT 9SM SCT095 SCT250 01/M02 A2989 RMK SLP130 =
2017-11-22 09:00 METAR CYSC 220900Z AUTO 00000KT 9SM CLR 01/M03 A2987 RMK SLP125 =
2017-11-22 08:00 METAR CYSC 220800Z AUTO 12002KT 9SM CLR 01/M04 A2987 RMK SLP125 =
2017-11-22 07:00 METAR CYSC 220700Z AUTO 08002KT 9SM FEW190 SCT250 02/M04 A2987 RMK SLP123 =
2017-11-22 06:00 METAR CYSC 220600Z AUTO 00000KT 9SM OVC170 01/M03 A2985 RMK SLP118 =
2017-11-22 05:00 METAR CYSC 220500Z AUTO 13003KT 9SM FEW250 M00/M04 A2986 RMK SLP120 =
2017-11-22 04:00 METAR CYSC 220400Z AUTO 00000KT 9SM CLR 02/M05 A2985 RMK SLP118 =
2017-11-22 03:00 METAR CYSC 220300Z AUTO 20004KT 9SM CLR 06/M05 A2985 RMK SLP116 =
2017-11-22 02:00 METAR CYSC 220200Z AUTO 20004KT 9SM CLR 06/M05 A2983 RMK SLP112 =
2017-11-22 01:00 METAR CYSC 220100Z AUTO 20005KT 9SM CLR 06/M05 A2982 RMK SLP111 =
2017-11-22 00:00 METAR CYSC 220000Z AUTO 20005KT 9SM SCT180 SCT250 07/M05 A2982 RMK SLP111 =
2017-11-21 23:00 METAR CYSC 212300Z AUTO 20007KT 9SM FEW170 BKN200 BKN250 08/M05 A2980 RMK SLP102
                 =
2017-11-21 22:00 METAR CYSC 212200Z AUTO 18005KT 160V220 9SM CLR 08/M06 A2978 RMK SLP096 =
2017-11-21 21:00 METAR CYSC 212100Z AUTO 20008G18KT 9SM FEW250 09/M06 A2977 RMK SLP094 =
2017-11-21 20:00 METAR CYSC 212000Z AUTO 20010G21KT 170V230 9SM FEW250 09/M05 A2975 RMK SLP086 =
2017-11-21 19:00 METAR CYSC 211900Z AUTO 20012G26KT 9SM FEW250 10/M04 A2974 RMK SLP082 =
2017-11-21 18:00 METAR CYSC 211800Z AUTO 21011G19KT 170V230 9SM FEW240 09/M04 A2975 RMK SLP087 =
2017-11-21 17:00 METAR CYSC 211700Z AUTO 19011G23KT 160V240 9SM CLR 08/M04 A2976 RMK SLP093 =

Support USWX by starting your Amazon purchase here.